sensor_id;sensor_type;location;lat;lon;timestamp;temperature;humidity
71206;SHT31;58935;54.498;18.544;2022-09-01T18:21:15;16.00;63.65
71206;SHT31;58935;54.498;18.544;2022-09-01T18:29:18;16.03;64.03
71206;SHT31;58935;54.498;18.544;2022-09-01T18:31:51;16.03;65.03
71206;SHT31;58935;54.498;18.544;2022-09-01T18:39:47;15.92;66.69
71206;SHT31;58935;54.498;18.544;2022-09-01T18:47:30;15.93;66.89
71206;SHT31;58935;54.498;18.544;2022-09-01T18:53:19;15.91;67.98
71206;SHT31;58935;54.498;18.544;2022-09-01T18:55:54;15.90;68.43
71206;SHT31;58935;54.498;18.544;2022-09-01T19:01:02;15.88;68.84
71206;SHT31;58935;54.498;18.544;2022-09-01T19:03:50;15.85;68.41
71206;SHT31;58935;54.498;18.544;2022-09-01T19:06:31;15.81;68.51
71206;SHT31;58935;54.498;18.544;2022-09-01T19:20:15;15.44;68.99
71206;SHT31;58935;54.498;18.544;2022-09-01T19:25:24;15.33;69.02
71206;SHT31;58935;54.498;18.544;2022-09-01T19:27:56;15.30;68.92
71206;SHT31;58935;54.498;18.544;2022-09-01T19:30:33;15.25;68.98
71206;SHT31;58935;54.498;18.544;2022-09-01T19:33:33;15.18;69.17
71206;SHT31;58935;54.498;18.544;2022-09-01T19:36:16;15.14;69.25
71206;SHT31;58935;54.498;18.544;2022-09-01T19:38:55;15.13;69.38
71206;SHT31;58935;54.498;18.544;2022-09-01T19:41:42;15.11;69.74
71206;SHT31;58935;54.498;18.544;2022-09-01T19:46:56;15.08;70.83
71206;SHT31;58935;54.498;18.544;2022-09-01T19:58:30;14.84;71.72
71206;SHT31;58935;54.498;18.544;2022-09-01T20:04:05;14.67;72.21
71206;SHT31;58935;54.498;18.544;2022-09-01T20:17:58;14.50;73.59
71206;SHT31;58935;54.498;18.544;2022-09-01T20:29:00;14.44;73.84
71206;SHT31;58935;54.498;18.544;2022-09-01T20:37:13;14.44;72.05
71206;SHT31;58935;54.498;18.544;2022-09-01T20:39:52;14.39;71.70
71206;SHT31;58935;54.498;18.544;2022-09-01T20:44:59;14.31;71.45
71206;SHT31;58935;54.498;18.544;2022-09-01T20:47:29;14.30;71.67
71206;SHT31;58935;54.498;18.544;2022-09-01T20:49:58;14.30;72.39
71206;SHT31;58935;54.498;18.544;2022-09-01T20:55:18;14.23;73.84
71206;SHT31;58935;54.498;18.544;2022-09-01T21:00:25;14.13;74.49
71206;SHT31;58935;54.498;18.544;2022-09-01T21:06:02;14.08;74.80
71206;SHT31;58935;54.498;18.544;2022-09-01T21:08:40;14.05;75.07
71206;SHT31;58935;54.498;18.544;2022-09-01T21:23:55;14.04;75.70
71206;SHT31;58935;54.498;18.544;2022-09-01T21:26:23;14.05;75.60
71206;SHT31;58935;54.498;18.544;2022-09-01T21:28:50;14.07;74.58
71206;SHT31;58935;54.498;18.544;2022-09-01T21:31:35;14.13;73.84
71206;SHT31;58935;54.498;18.544;2022-09-01T21:34:00;14.18;73.32
71206;SHT31;58935;54.498;18.544;2022-09-01T21:36:28;14.22;72.99
71206;SHT31;58935;54.498;18.544;2022-09-01T21:38:58;14.26;72.66
71206;SHT31;58935;54.498;18.544;2022-09-01T21:41:25;14.27;72.43
71206;SHT31;58935;54.498;18.544;2022-09-01T21:43:51;14.27;72.26
71206;SHT31;58935;54.498;18.544;2022-09-01T21:46:16;14.23;72.21
71206;SHT31;58935;54.498;18.544;2022-09-01T21:48:44;14.18;72.72
71206;SHT31;58935;54.498;18.544;2022-09-01T21:51:09;14.12;73.11
71206;SHT31;58935;54.498;18.544;2022-09-01T21:53:40;14.06;73.39
71206;SHT31;58935;54.498;18.544;2022-09-01T21:56:05;14.02;73.63
71206;SHT31;58935;54.498;18.544;2022-09-01T21:58:35;14.01;73.78
71206;SHT31;58935;54.498;18.544;2022-09-01T22:01:03;14.02;73.97
71206;SHT31;58935;54.498;18.544;2022-09-01T22:03:31;14.08;74.10
71206;SHT31;58935;54.498;18.544;2022-09-01T22:06:04;14.13;74.08
71206;SHT31;58935;54.498;18.544;2022-09-01T22:08:33;14.19;73.99
71206;SHT31;58935;54.498;18.544;2022-09-01T22:11:05;14.25;73.85
71206;SHT31;58935;54.498;18.544;2022-09-01T22:13:36;14.29;73.69
71206;SHT31;58935;54.498;18.544;2022-09-01T22:16:01;14.32;73.62
71206;SHT31;58935;54.498;18.544;2022-09-01T22:18:27;14.35;73.54
71206;SHT31;58935;54.498;18.544;2022-09-01T22:23:25;14.38;73.47
71206;SHT31;58935;54.498;18.544;2022-09-01T22:25:50;14.39;73.43
71206;SHT31;58935;54.498;18.544;2022-09-01T22:28:18;14.39;73.24
71206;SHT31;58935;54.498;18.544;2022-09-01T22:30:45;14.38;73.21
71206;SHT31;58935;54.498;18.544;2022-09-01T22:33:12;14.38;72.84
71206;SHT31;58935;54.498;18.544;2022-09-01T22:35:41;14.40;72.59
71206;SHT31;58935;54.498;18.544;2022-09-01T22:38:12;14.42;72.12
71206;SHT31;58935;54.498;18.544;2022-09-01T22:40:44;14.45;71.92
71206;SHT31;58935;54.498;18.544;2022-09-01T22:43:13;14.47;71.92
71206;SHT31;58935;54.498;18.544;2022-09-01T22:45:46;14.51;71.76
71206;SHT31;58935;54.498;18.544;2022-09-01T22:51:15;14.60;71.26
71206;SHT31;58935;54.498;18.544;2022-09-01T22:53:50;14.62;71.17
71206;SHT31;58935;54.498;18.544;2022-09-01T22:56:30;14.63;71.10
71206;SHT31;58935;54.498;18.544;2022-09-01T22:59:01;14.61;70.95
71206;SHT31;58935;54.498;18.544;2022-09-01T23:01:40;14.59;70.91
71206;SHT31;58935;54.498;18.544;2022-09-01T23:04:10;14.55;70.63
71206;SHT31;58935;54.498;18.544;2022-09-01T23:06:39;14.51;70.50
71206;SHT31;58935;54.498;18.544;2022-09-01T23:09:28;14.47;70.51
71206;SHT31;58935;54.498;18.544;2022-09-01T23:15:17;14.41;70.10
71206;SHT31;58935;54.498;18.544;2022-09-01T23:17:42;14.38;69.79
71206;SHT31;58935;54.498;18.544;2022-09-01T23:23:07;14.38;70.66
71206;SHT31;58935;54.498;18.544;2022-09-01T23:31:39;14.31;72.14
71206;SHT31;58935;54.498;18.544;2022-09-01T23:34:21;14.27;72.62
71206;SHT31;58935;54.498;18.544;2022-09-01T23:36:52;14.18;73.17
71206;SHT31;58935;54.498;18.544;2022-09-01T23:39:38;14.12;73.49
71206;SHT31;58935;54.498;18.544;2022-09-01T23:42:06;14.05;73.76
71206;SHT31;58935;54.498;18.544;2022-09-01T23:44:37;14.01;73.80
71206;SHT31;58935;54.498;18.544;2022-09-01T23:47:08;13.96;74.01
71206;SHT31;58935;54.498;18.544;2022-09-01T23:49:39;13.97;73.90
71206;SHT31;58935;54.498;18.544;2022-09-01T23:52:13;14.00;73.86
71206;SHT31;58935;54.498;18.544;2022-09-01T23:54:39;14.01;73.37
71206;SHT31;58935;54.498;18.544;2022-09-01T23:57:08;14.01;73.36
71206;SHT31;58935;54.498;18.544;2022-09-01T23:59:33;14.03;72.89
